Terminal Aerodrome Forecast
Issued by NWS Cleveland, OH

Home | Current Version | Previous Version | Graphics & Text | Print | Product List | Glossary On
Versions: 1 2 3 4 5 6 7 8 9 10 11 12 13 14 15 16 17 18 19
000
FTUS41 KCLE 200942 AAB
TAFERI
TAF AMD
KERI 200942Z 2010/2106 21010KT P6SM BKN025
     FM201400 24012G20KT P6SM SCT040
     FM202000 25014G22KT P6SM BKN035
     FM210000 24010KT P6SM VCSH BKN035=

USA.gov is the U.S. government's official web portal to all federal, state and local government web resources and services.